createdAt,value
2019-04-27T00:00:00.044Z,9.89
2019-04-27T00:00:58.147Z,9.86
2019-04-27T00:01:58.372Z,9.80
2019-04-27T00:03:02.040Z,9.59
2019-04-27T00:03:58.822Z,9.72
2019-04-27T00:04:59.049Z,9.74
2019-04-27T00:05:59.278Z,9.65
2019-04-27T00:06:59.502Z,9.76
2019-04-27T00:07:59.730Z,9.77
2019-04-27T00:08:59.956Z,9.83
2019-04-27T00:10:00.174Z,9.86
2019-04-27T00:11:05.150Z,9.89
2019-04-27T00:12:00.620Z,9.92
2019-04-27T00:13:02.218Z,9.83
2019-04-27T00:14:01.072Z,9.95
2019-04-27T00:15:03.194Z,9.99
2019-04-27T00:16:04.081Z,9.87
2019-04-27T00:17:01.745Z,9.94
2019-04-27T00:18:03.550Z,9.98
2019-04-27T00:19:03.773Z,9.89
2019-04-27T00:20:04.345Z,9.97
2019-04-27T00:21:03.568Z,9.99
2019-04-27T00:22:03.241Z,9.95
2019-04-27T00:23:03.427Z,9.98
2019-04-27T00:24:03.514Z,10.02
2019-04-27T00:25:03.705Z,9.92
2019-04-27T00:26:03.765Z,10.04
2019-04-27T00:27:03.981Z,10.01
2019-04-27T00:28:05.424Z,9.98
2019-04-27T00:29:04.428Z,9.95
2019-04-27T00:30:04.663Z,9.97
2019-04-27T00:31:04.877Z,9.89
2019-04-27T00:32:05.103Z,9.92
2019-04-27T00:33:05.539Z,9.87
2019-04-27T00:34:05.551Z,9.91
2019-04-27T00:35:05.779Z,9.91
2019-04-27T00:36:05.999Z,9.87
2019-04-27T00:37:06.223Z,9.80
2019-04-27T00:38:06.451Z,9.83
2019-04-27T00:39:06.679Z,9.79
2019-04-27T00:40:06.898Z,9.73
2019-04-27T00:41:07.122Z,9.76
2019-04-27T00:42:07.344Z,9.65
2019-04-27T00:43:07.568Z,9.76
2019-04-27T00:44:07.791Z,9.68
2019-04-27T00:45:08.026Z,9.72
2019-04-27T00:46:08.236Z,9.65
2019-04-27T00:47:08.458Z,9.76
2019-04-27T00:48:08.683Z,9.64
2019-04-27T00:49:08.907Z,9.54
2019-04-27T00:50:09.133Z,9.47
2019-04-27T00:51:09.356Z,9.44
2019-04-27T00:52:09.584Z,9.46
2019-04-27T00:53:09.804Z,9.41
2019-04-27T00:54:10.030Z,9.21
2019-04-27T00:55:10.253Z,9.26
2019-04-27T00:56:10.479Z,9.21
2019-04-27T00:57:10.706Z,9.25
2019-04-27T00:58:10.927Z,9.25
2019-04-27T00:59:11.150Z,9.46
2019-04-27T01:00:11.366Z,9.41
2019-04-27T01:01:12.726Z,9.34
2019-04-27T01:02:13.345Z,9.40
2019-04-27T01:03:13.845Z,9.28
2019-04-27T01:04:13.618Z,9.25
2019-04-27T01:05:13.055Z,9.32
2019-04-27T01:06:13.067Z,9.37
2019-04-27T01:07:14.299Z,9.36
2019-04-27T01:08:13.922Z,9.46
2019-04-27T01:09:13.451Z,9.41
2019-04-27T01:10:13.619Z,9.43
2019-04-27T01:11:14.107Z,9.43
2019-04-27T01:12:14.070Z,9.40
2019-04-27T01:13:14.293Z,9.46
2019-04-27T01:14:14.519Z,9.46
2019-04-27T01:15:14.743Z,9.56
2019-04-27T01:16:17.125Z,9.50
2019-04-27T01:17:15.193Z,9.47
2019-04-27T01:18:15.675Z,9.51
2019-04-27T01:19:15.638Z,9.61
2019-04-27T01:20:15.863Z,9.56
2019-04-27T01:21:16.087Z,9.50
2019-04-27T01:22:16.314Z,9.54
2019-04-27T01:23:16.534Z,9.59
2019-04-27T01:24:16.757Z,9.40
2019-04-27T01:25:18.757Z,9.46
2019-04-27T01:26:18.598Z,9.48
2019-04-27T01:27:18.923Z,9.55
2019-04-27T01:28:18.321Z,9.50
2019-04-27T01:29:19.309Z,9.54
2019-04-27T01:30:18.876Z,9.58
2019-04-27T01:31:19.301Z,9.58
2019-04-27T01:32:18.611Z,9.55
2019-04-27T01:33:19.821Z,9.51
2019-04-27T01:34:19.353Z,9.48
2019-04-27T01:35:19.225Z,9.58
2019-04-27T01:36:19.451Z,9.43
2019-04-27T01:37:21.191Z,9.50
2019-04-27T01:38:19.904Z,9.51
2019-04-27T01:39:20.124Z,9.55
2019-04-27T01:40:20.348Z,9.55
2019-04-27T01:41:20.569Z,9.56
2019-04-27T01:42:20.797Z,9.54
2019-04-27T01:43:21.019Z,9.55
2019-04-27T01:44:21.244Z,9.59
2019-04-27T01:45:21.471Z,9.58
2019-04-27T01:46:21.690Z,9.56
2019-04-27T01:47:21.916Z,9.61
2019-04-27T01:48:25.240Z,9.56
2019-04-27T01:49:22.365Z,9.39
2019-04-27T01:50:22.590Z,9.43
2019-04-27T01:51:22.812Z,9.54
2019-04-27T01:52:23.037Z,9.50
2019-04-27T01:53:23.262Z,9.50
2019-04-27T01:54:23.488Z,9.51
2019-04-27T01:55:23.715Z,9.51
2019-04-27T01:56:23.937Z,9.55
2019-04-27T01:57:24.161Z,9.50
2019-04-27T01:58:24.385Z,9.58
2019-04-27T01:59:24.609Z,9.64
2019-04-27T02:00:24.835Z,9.58
2019-04-27T02:01:25.057Z,9.68
2019-04-27T02:02:25.279Z,9.68
2019-04-27T02:03:25.504Z,9.76
2019-04-27T02:04:25.724Z,9.77
2019-04-27T02:05:25.947Z,9.74
2019-04-27T02:06:26.171Z,9.80
2019-04-27T02:07:26.395Z,9.83
2019-04-27T02:08:26.621Z,9.82
2019-04-27T02:09:26.843Z,9.79
2019-04-27T02:10:27.070Z,9.74
2019-04-27T02:11:28.789Z,9.79
2019-04-27T02:12:29.410Z,9.84
2019-04-27T02:13:29.032Z,9.82
2019-04-27T02:14:28.782Z,9.80
2019-04-27T02:15:29.332Z,9.76
2019-04-27T02:16:28.973Z,9.82
2019-04-27T02:17:28.884Z,9.89
2019-04-27T02:18:35.637Z,9.80
2019-04-27T02:19:29.302Z,9.83
2019-04-27T02:20:30.125Z,9.79
2019-04-27T02:21:29.551Z,9.92
2019-04-27T02:22:29.794Z,9.86
2019-04-27T02:23:29.998Z,9.87
2019-04-27T02:24:30.225Z,9.89
2019-04-27T02:25:30.447Z,9.87
2019-04-27T02:26:30.672Z,9.79
2019-04-27T02:27:30.901Z,9.73
2019-04-27T02:28:31.121Z,9.62
2019-04-27T02:29:31.345Z,9.72
2019-04-27T02:30:31.572Z,9.86
2019-04-27T02:31:31.830Z,9.87
2019-04-27T02:32:32.010Z,9.87
2019-04-27T02:33:32.234Z,9.97
2019-04-27T02:34:32.459Z,10.01
2019-04-27T02:35:32.684Z,9.99
2019-04-27T02:36:32.904Z,9.99
2019-04-27T02:37:33.131Z,9.99
2019-04-27T02:38:33.355Z,9.99
2019-04-27T02:39:33.582Z,10.04
2019-04-27T02:40:33.803Z,10.01
2019-04-27T02:41:34.029Z,9.97
2019-04-27T02:42:34.255Z,10.07
2019-04-27T02:43:34.483Z,9.97
2019-04-27T02:44:34.704Z,10.02
2019-04-27T02:45:34.928Z,10.09
2019-04-27T02:46:35.158Z,9.99
2019-04-27T02:47:35.377Z,9.97
2019-04-27T02:48:51.900Z,10.01
2019-04-27T02:49:35.828Z,9.98
2019-04-27T02:50:36.056Z,10.01
2019-04-27T02:51:36.279Z,9.95
2019-04-27T02:52:36.503Z,10.02
2019-04-27T02:53:36.722Z,10.05
2019-04-27T02:54:36.950Z,9.97
2019-04-27T02:55:39.478Z,9.98
2019-04-27T02:56:37.398Z,9.99
2019-04-27T02:57:39.830Z,10.01
2019-04-27T02:58:40.464Z,10.04
2019-04-27T02:59:39.915Z,10.05
2019-04-27T03:00:40.069Z,9.94
2019-04-27T03:01:43.483Z,10.02
2019-04-27T03:02:40.246Z,10.04
2019-04-27T03:03:40.950Z,10.12
2019-04-27T03:04:39.993Z,10.07
2019-04-27T03:05:40.092Z,10.05
2019-04-27T03:06:39.955Z,10.10
2019-04-27T03:07:42.591Z,10.02
2019-04-27T03:08:42.614Z,10.05
2019-04-27T03:09:40.320Z,9.86
2019-04-27T03:10:40.552Z,9.98
2019-04-27T03:11:40.769Z,10.04
2019-04-27T03:12:42.418Z,10.04
2019-04-27T03:13:41.216Z,10.09
2019-04-27T03:14:41.443Z,9.99
2019-04-27T03:15:41.665Z,10.02
2019-04-27T03:16:41.891Z,9.98
2019-04-27T03:17:42.115Z,9.92
2019-04-27T03:18:42.341Z,9.91
2019-04-27T03:19:42.569Z,9.89
2019-04-27T03:20:42.789Z,9.94
2019-04-27T03:21:43.026Z,9.87
2019-04-27T03:22:43.240Z,9.94
2019-04-27T03:23:43.466Z,9.92
2019-04-27T03:24:43.692Z,9.86
2019-04-27T03:25:43.916Z,9.95
2019-04-27T03:26:44.142Z,9.91
2019-04-27T03:27:44.363Z,9.89
2019-04-27T03:28:44.589Z,9.98
2019-04-27T03:29:44.814Z,9.95
2019-04-27T03:30:45.054Z,9.94
2019-04-27T03:31:47.299Z,9.87
2019-04-27T03:32:45.488Z,9.92
2019-04-27T03:33:45.712Z,9.95
2019-04-27T03:34:45.936Z,9.92
2019-04-27T03:35:46.161Z,9.91
2019-04-27T03:36:46.385Z,9.84
2019-04-27T03:37:46.608Z,9.84
2019-04-27T03:38:46.833Z,9.77
2019-04-27T03:39:49.734Z,9.89
2019-04-27T03:40:47.283Z,9.83
2019-04-27T03:41:50.231Z,9.82
2019-04-27T03:42:50.052Z,9.86
2019-04-27T03:43:49.921Z,9.74
2019-04-27T03:44:50.258Z,9.83
2019-04-27T03:45:51.751Z,9.89
2019-04-27T03:46:49.636Z,9.87
2019-04-27T03:47:50.548Z,9.83
2019-04-27T03:48:49.719Z,9.86
2019-04-27T03:49:50.573Z,9.76
2019-04-27T03:50:50.602Z,9.80
2019-04-27T03:51:50.028Z,9.86
2019-04-27T03:52:50.166Z,9.83
2019-04-27T03:53:50.197Z,9.80
2019-04-27T03:54:50.520Z,9.84
2019-04-27T03:55:50.657Z,9.77
2019-04-27T03:56:50.964Z,9.82
2019-04-27T03:57:51.092Z,9.89
2019-04-27T03:58:51.318Z,9.77
2019-04-27T03:59:51.541Z,9.80
2019-04-27T04:00:52.217Z,9.87
2019-04-27T04:01:51.993Z,9.82
2019-04-27T04:02:52.228Z,9.86
2019-04-27T04:03:52.442Z,9.84
2019-04-27T04:04:52.668Z,9.80
2019-04-27T04:05:52.893Z,9.73
2019-04-27T04:06:53.120Z,9.80
2019-04-27T04:07:53.341Z,9.86
2019-04-27T04:08:55.234Z,9.92
2019-04-27T04:09:53.795Z,9.82
2019-04-27T04:10:54.017Z,9.84
2019-04-27T04:11:54.242Z,9.83
2019-04-27T04:12:56.318Z,9.89
2019-04-27T04:13:54.701Z,9.80
2019-04-27T04:14:54.917Z,9.79
2019-04-27T04:15:55.140Z,9.79
2019-04-27T04:16:59.050Z,9.80
2019-04-27T04:17:55.591Z,9.80
2019-04-27T04:18:55.811Z,9.77
2019-04-27T04:20:00.302Z,9.79
2019-04-27T04:20:56.257Z,9.80
2019-04-27T04:21:56.480Z,9.77
2019-04-27T04:22:56.703Z,9.77
2019-04-27T04:23:56.929Z,9.79
2019-04-27T04:24:57.153Z,9.77
2019-04-27T04:25:59.502Z,9.82
2019-04-27T04:26:59.845Z,9.76
2019-04-27T04:28:00.389Z,9.80
2019-04-27T04:28:59.873Z,9.83
2019-04-27T04:29:59.443Z,9.68
2019-04-27T04:31:00.505Z,9.68
2019-04-27T04:32:00.455Z,9.73
2019-04-27T04:32:59.876Z,9.73
2019-04-27T04:33:59.938Z,9.77
2019-04-27T04:35:01.283Z,9.80
2019-04-27T04:35:59.877Z,9.77
2019-04-27T04:37:00.433Z,9.79
2019-04-27T04:38:00.400Z,9.79
2019-04-27T04:39:00.688Z,9.80
2019-04-27T04:40:00.520Z,9.86
2019-04-27T04:41:00.749Z,9.80
2019-04-27T04:42:00.972Z,9.77
2019-04-27T04:43:03.437Z,9.69
2019-04-27T04:44:01.419Z,9.72
2019-04-27T04:45:01.668Z,9.77
2019-04-27T04:46:01.871Z,9.69
2019-04-27T04:47:02.089Z,9.74
2019-04-27T04:48:02.315Z,9.55
2019-04-27T04:49:02.538Z,9.66
2019-04-27T04:50:11.310Z,9.72
2019-04-27T04:51:03.000Z,9.74
2019-04-27T04:52:03.226Z,9.73
2019-04-27T04:53:03.435Z,9.68
2019-04-27T04:54:03.659Z,9.72
2019-04-27T04:55:03.889Z,9.61
2019-04-27T04:56:04.104Z,9.66
2019-04-27T04:57:04.336Z,9.64
2019-04-27T04:58:04.560Z,9.69
2019-04-27T04:59:04.784Z,9.74
2019-04-27T05:00:05.006Z,9.74
2019-04-27T05:01:05.229Z,9.73
2019-04-27T05:02:05.452Z,9.77
2019-04-27T05:03:05.675Z,9.82
2019-04-27T05:04:05.899Z,9.87
2019-04-27T05:05:06.124Z,9.91
2019-04-27T05:06:06.353Z,9.86
2019-04-27T05:07:06.579Z,9.94
2019-04-27T05:08:06.803Z,9.97
2019-04-27T05:09:07.029Z,10.01
2019-04-27T05:10:08.873Z,10.01
2019-04-27T05:11:09.504Z,10.01
2019-04-27T05:12:08.878Z,10.04
2019-04-27T05:13:09.319Z,10.10
2019-04-27T05:14:09.897Z,9.99
2019-04-27T05:15:09.125Z,9.99
2019-04-27T05:16:09.036Z,10.07
2019-04-27T05:17:09.468Z,10.02
2019-04-27T05:18:09.282Z,10.16
2019-04-27T05:19:11.219Z,10.15
2019-04-27T05:20:22.150Z,10.17
2019-04-27T05:21:09.726Z,10.15
2019-04-27T05:22:09.945Z,10.23
2019-04-27T05:23:10.168Z,10.28
2019-04-27T05:24:10.391Z,10.33
2019-04-27T05:25:10.981Z,10.35
2019-04-27T05:26:10.834Z,10.35
2019-04-27T05:27:11.059Z,10.33
2019-04-27T05:28:11.286Z,10.34
2019-04-27T05:29:11.511Z,10.37
2019-04-27T05:30:11.743Z,10.49
2019-04-27T05:31:11.967Z,10.38
2019-04-27T05:32:12.188Z,10.46
2019-04-27T05:33:12.414Z,10.38
2019-04-27T05:34:12.642Z,10.44
2019-04-27T05:35:12.871Z,10.51
2019-04-27T05:36:13.451Z,10.61
2019-04-27T05:37:13.315Z,10.60
2019-04-27T05:38:13.795Z,10.74
2019-04-27T05:39:18.150Z,10.84
2019-04-27T05:40:13.988Z,10.97
2019-04-27T05:41:14.213Z,11.17
2019-04-27T05:42:17.140Z,11.23
2019-04-27T05:43:14.661Z,11.35
2019-04-27T05:44:14.889Z,11.48
2019-04-27T05:45:15.358Z,11.52
2019-04-27T05:46:15.337Z,11.57
2019-04-27T05:47:15.567Z,11.69
2019-04-27T05:48:15.790Z,11.77
2019-04-27T05:49:16.012Z,11.84
2019-04-27T05:50:20.535Z,11.87
2019-04-27T05:51:16.465Z,11.84
2019-04-27T05:52:16.687Z,11.94
2019-04-27T05:53:16.916Z,11.95
2019-04-27T05:54:17.139Z,12.02
2019-04-27T05:55:19.121Z,12.03
2019-04-27T05:56:19.293Z,11.94
2019-04-27T05:57:19.467Z,12.00
2019-04-27T05:58:19.562Z,12.09
2019-04-27T05:59:19.797Z,12.02
2019-04-27T06:00:19.158Z,12.10
2019-04-27T06:01:19.655Z,12.07
2019-04-27T06:02:20.766Z,12.07
2019-04-27T06:03:21.069Z,12.04
2019-04-27T06:04:19.486Z,12.03
2019-04-27T06:05:22.504Z,12.10
2019-04-27T06:06:19.866Z,12.10
2019-04-27T06:07:20.067Z,12.24
2019-04-27T06:08:21.142Z,12.20
2019-04-27T06:09:20.521Z,12.25
2019-04-27T06:10:20.747Z,12.31
2019-04-27T06:11:20.972Z,12.36
2019-04-27T06:12:21.199Z,12.40
2019-04-27T06:13:21.427Z,12.42
2019-04-27T06:14:21.652Z,12.46
2019-04-27T06:15:21.879Z,12.46
2019-04-27T06:16:22.109Z,12.37
2019-04-27T06:17:22.330Z,12.53
2019-04-27T06:18:22.555Z,12.46
2019-04-27T06:19:22.781Z,12.49
2019-04-27T06:20:23.007Z,12.62
2019-04-27T06:21:23.234Z,12.57
2019-04-27T06:22:23.459Z,12.60
2019-04-27T06:23:23.683Z,12.62
2019-04-27T06:24:23.910Z,12.76
2019-04-27T06:25:24.135Z,12.80
2019-04-27T06:26:24.360Z,13.30
2019-04-27T06:27:24.591Z,13.35
2019-04-27T06:28:24.820Z,13.37
2019-04-27T06:29:25.044Z,13.47
2019-04-27T06:30:25.270Z,13.46
2019-04-27T06:31:25.496Z,13.95
2019-04-27T06:32:25.719Z,13.90
2019-04-27T06:33:32.027Z,13.89
2019-04-27T06:34:26.174Z,13.90
2019-04-27T06:35:26.398Z,13.95
2019-04-27T06:36:28.622Z,14.14
2019-04-27T06:37:29.105Z,14.29
2019-04-27T06:38:27.081Z,14.47
2019-04-27T06:39:27.309Z,14.62
2019-04-27T06:40:29.073Z,14.73
2019-04-27T06:41:29.493Z,14.89
2019-04-27T06:42:29.715Z,15.11
2019-04-27T06:43:29.391Z,15.10
2019-04-27T06:44:29.324Z,15.19
2019-04-27T06:45:28.671Z,15.27
2019-04-27T06:46:29.017Z,15.27
2019-04-27T06:47:29.600Z,15.47
2019-04-27T06:48:29.666Z,15.49
2019-04-27T06:49:29.586Z,15.42
2019-04-27T06:50:29.801Z,15.49
2019-04-27T06:51:30.029Z,15.64
2019-04-27T06:52:30.253Z,15.67
2019-04-27T06:53:30.476Z,15.68
2019-04-27T06:54:30.706Z,15.73
2019-04-27T06:55:30.933Z,15.52
2019-04-27T06:56:31.162Z,15.68
2019-04-27T06:57:31.384Z,15.70
2019-04-27T06:58:31.617Z,15.79
2019-04-27T06:59:31.837Z,15.70
2019-04-27T07:00:32.065Z,15.57
2019-04-27T07:01:32.290Z,15.46
2019-04-27T07:02:32.520Z,15.33
2019-04-27T07:03:32.745Z,15.21
2019-04-27T07:04:32.972Z,15.07
2019-04-27T07:05:33.201Z,14.81
2019-04-27T07:06:33.434Z,14.84
2019-04-27T07:07:33.652Z,14.84
2019-04-27T07:08:33.876Z,14.73
2019-04-27T07:09:34.102Z,14.60
2019-04-27T07:10:34.334Z,14.54
2019-04-27T07:11:34.562Z,14.43
2019-04-27T07:12:34.790Z,14.51
2019-04-27T07:13:35.017Z,14.40
2019-04-27T07:14:35.244Z,14.23
2019-04-27T07:15:35.476Z,14.26
2019-04-27T07:16:35.699Z,14.30
2019-04-27T07:17:35.928Z,14.32
2019-04-27T07:18:36.158Z,14.33
2019-04-27T07:19:36.387Z,14.26
2019-04-27T07:20:38.745Z,14.35
2019-04-27T07:21:36.837Z,14.33
2019-04-27T07:22:37.081Z,14.40
2019-04-27T07:23:38.851Z,14.37
2019-04-27T07:24:38.797Z,14.37
2019-04-27T07:25:38.863Z,14.44
2019-04-27T07:26:39.043Z,14.60
2019-04-27T07:27:39.467Z,14.68
2019-04-27T07:28:39.216Z,14.91
2019-04-27T07:29:40.336Z,14.92
2019-04-27T07:30:38.907Z,15.14
2019-04-27T07:31:40.108Z,15.22
2019-04-27T07:32:39.334Z,15.27
2019-04-27T07:33:39.654Z,15.21
2019-04-27T07:34:39.789Z,15.46
2019-04-27T07:35:40.031Z,15.09
2019-04-27T07:36:40.256Z,14.99
2019-04-27T07:37:40.484Z,15.29
2019-04-27T07:38:40.708Z,15.44
2019-04-27T07:39:40.937Z,15.68
2019-04-27T07:40:42.013Z,15.75
2019-04-27T07:41:41.395Z,15.91
2019-04-27T07:42:41.620Z,16.12
2019-04-27T07:43:41.849Z,16.32
2019-04-27T07:44:42.073Z,16.32
2019-04-27T07:45:42.305Z,16.58
2019-04-27T07:46:42.533Z,16.66
2019-04-27T07:47:42.756Z,16.60
2019-04-27T07:48:42.981Z,16.74
2019-04-27T07:49:43.212Z,16.57
2019-04-27T07:50:43.438Z,16.83
2019-04-27T07:51:43.664Z,16.76
2019-04-27T07:52:43.893Z,16.84
2019-04-27T07:53:44.121Z,16.91
2019-04-27T07:54:44.349Z,16.96
2019-04-27T07:55:44.577Z,16.97
2019-04-27T07:56:44.804Z,16.81
2019-04-27T07:57:45.033Z,16.86
2019-04-27T07:58:45.258Z,16.87
2019-04-27T07:59:45.487Z,17.05
2019-04-27T08:00:45.715Z,17.11
2019-04-27T08:01:45.941Z,17.06
2019-04-27T08:02:46.174Z,17.27
2019-04-27T08:03:46.406Z,17.36
2019-04-27T08:04:48.475Z,17.34
2019-04-27T08:05:46.856Z,17.49
2019-04-27T08:06:47.085Z,17.44
2019-04-27T08:07:49.066Z,17.51
2019-04-27T08:08:49.166Z,17.54
2019-04-27T08:09:49.308Z,17.67
2019-04-27T08:10:50.150Z,17.39
2019-04-27T08:11:48.815Z,17.42
2019-04-27T08:12:49.862Z,17.44
2019-04-27T08:13:49.073Z,17.44
2019-04-27T08:14:49.188Z,17.45
2019-04-27T08:15:49.616Z,17.52
2019-04-27T08:16:49.371Z,17.44
2019-04-27T08:17:49.598Z,17.51
2019-04-27T08:18:51.621Z,17.68
2019-04-27T08:19:50.055Z,17.76
2019-04-27T08:20:50.290Z,17.85
2019-04-27T08:21:50.514Z,17.98
2019-04-27T08:22:50.741Z,18.05
2019-04-27T08:23:50.972Z,18.00
2019-04-27T08:24:51.197Z,17.76
2019-04-27T08:25:51.425Z,17.97
2019-04-27T08:26:51.654Z,18.22
2019-04-27T08:27:51.885Z,18.34
2019-04-27T08:28:52.110Z,18.59
2019-04-27T08:29:52.350Z,18.58
2019-04-27T08:30:52.575Z,18.66
2019-04-27T08:31:52.801Z,18.70
2019-04-27T08:32:53.028Z,18.63
2019-04-27T08:33:53.260Z,18.53
2019-04-27T08:34:53.478Z,18.45
2019-04-27T08:35:53.713Z,18.45
2019-04-27T08:36:53.936Z,18.47
2019-04-27T08:37:54.164Z,18.47
2019-04-27T08:38:54.397Z,18.43
2019-04-27T08:39:54.623Z,18.37
2019-04-27T08:40:54.853Z,18.23
2019-04-27T08:41:55.087Z,18.33
2019-04-27T08:42:55.839Z,18.25
2019-04-27T08:43:55.540Z,18.53
2019-04-27T08:44:55.767Z,18.47
2019-04-27T08:45:55.991Z,18.45
2019-04-27T08:46:56.225Z,18.19
2019-04-27T08:47:56.453Z,18.05
2019-04-27T08:48:58.567Z,17.98
2019-04-27T08:49:56.909Z,18.04
2019-04-27T08:50:57.137Z,18.11
2019-04-27T08:52:01.389Z,18.10
2019-04-27T08:52:57.594Z,18.19
2019-04-27T08:53:59.091Z,18.07
2019-04-27T08:54:59.388Z,18.13
2019-04-27T08:55:59.217Z,18.22
2019-04-27T08:56:59.630Z,18.26
2019-04-27T08:57:58.839Z,18.44
2019-04-27T08:58:59.480Z,18.31
2019-04-27T08:59:59.619Z,18.23
2019-04-27T09:00:59.424Z,18.40
2019-04-27T09:01:59.655Z,18.37
2019-04-27T09:02:59.885Z,18.26
2019-04-27T09:04:00.110Z,18.43
2019-04-27T09:05:00.343Z,18.41
2019-04-27T09:06:00.569Z,18.43
2019-04-27T09:07:00.828Z,18.43
2019-04-27T09:08:01.033Z,18.56
2019-04-27T09:09:01.251Z,18.73
2019-04-27T09:10:01.481Z,18.89
2019-04-27T09:11:01.707Z,18.95
2019-04-27T09:12:01.937Z,19.02
2019-04-27T09:13:02.169Z,19.00
2019-04-27T09:14:02.398Z,19.18
2019-04-27T09:15:02.625Z,19.16
2019-04-27T09:16:02.852Z,19.00
2019-04-27T09:17:03.150Z,19.11
2019-04-27T09:18:03.310Z,19.14
2019-04-27T09:19:03.539Z,19.09
2019-04-27T09:20:03.771Z,18.93
2019-04-27T09:21:03.998Z,18.77
2019-04-27T09:22:13.537Z,18.92
2019-04-27T09:23:04.457Z,18.90
2019-04-27T09:24:04.685Z,18.92
2019-04-27T09:25:04.914Z,19.08
2019-04-27T09:26:05.144Z,19.15
2019-04-27T09:27:05.377Z,19.18
2019-04-27T09:28:05.605Z,19.19
2019-04-27T09:29:05.832Z,19.21
2019-04-27T09:30:06.065Z,19.31
2019-04-27T09:31:06.292Z,19.31
2019-04-27T09:32:06.524Z,19.52
2019-04-27T09:33:06.752Z,19.40
2019-04-27T09:34:08.093Z,19.40
2019-04-27T09:35:07.747Z,19.52
2019-04-27T09:36:07.436Z,19.33
2019-04-27T09:37:07.676Z,19.19
2019-04-27T09:38:07.900Z,18.98
2019-04-27T09:39:08.576Z,18.93
2019-04-27T09:40:08.358Z,19.07
2019-04-27T09:41:08.588Z,19.09
2019-04-27T09:42:08.814Z,19.11
2019-04-27T09:43:09.044Z,18.73
2019-04-27T09:44:09.274Z,18.74
2019-04-27T09:45:09.504Z,18.98
2019-04-27T09:46:09.736Z,19.04
2019-04-27T09:47:09.960Z,19.12
2019-04-27T09:48:10.190Z,19.02
2019-04-27T09:49:12.150Z,18.89
2019-04-27T09:50:10.649Z,19.04
2019-04-27T09:51:10.879Z,19.14
2019-04-27T09:52:23.372Z,19.07
2019-04-27T09:53:11.335Z,19.04
2019-04-27T09:54:11.568Z,18.99
2019-04-27T09:55:11.803Z,19.15
2019-04-27T09:56:12.030Z,18.93
2019-04-27T09:57:12.259Z,18.93
2019-04-27T09:58:12.490Z,18.93
2019-04-27T09:59:12.720Z,18.90
2019-04-27T10:00:12.950Z,18.66
2019-04-27T10:01:15.750Z,18.40
2019-04-27T10:02:13.410Z,18.45
2019-04-27T10:03:13.638Z,18.33
2019-04-27T10:04:15.683Z,18.10
2019-04-27T10:05:15.368Z,18.15
2019-04-27T10:06:15.891Z,18.07
2019-04-27T10:07:16.135Z,18.05
2019-04-27T10:08:14.781Z,17.98
2019-04-27T10:09:15.968Z,17.92
2019-04-27T10:10:15.757Z,17.89
2019-04-27T10:11:16.229Z,17.97
2019-04-27T10:12:15.913Z,17.98
2019-04-27T10:13:15.927Z,17.85
2019-04-27T10:14:16.397Z,17.82
2019-04-27T10:15:16.389Z,17.74
2019-04-27T10:16:16.619Z,17.79
2019-04-27T10:17:16.843Z,17.65
2019-04-27T10:18:17.078Z,17.59
2019-04-27T10:19:28.091Z,17.44
2019-04-27T10:20:17.536Z,17.39
2019-04-27T10:21:17.763Z,17.20
2019-04-27T10:22:18.006Z,17.29
2019-04-27T10:23:18.221Z,17.29
2019-04-27T10:24:18.453Z,17.19
2019-04-27T10:25:18.682Z,17.09
2019-04-27T10:26:18.909Z,17.14
2019-04-27T10:27:19.141Z,17.12
2019-04-27T10:28:19.369Z,17.19
2019-04-27T10:29:19.597Z,17.12
2019-04-27T10:30:19.832Z,17.04
2019-04-27T10:31:20.060Z,16.99
2019-04-27T10:32:20.402Z,16.89
2019-04-27T10:33:20.520Z,16.87
2019-04-27T10:34:20.743Z,16.83
2019-04-27T10:35:20.971Z,16.72
2019-04-27T10:36:21.198Z,16.76
2019-04-27T10:37:21.427Z,16.78
2019-04-27T10:38:21.696Z,16.74
2019-04-27T10:39:21.883Z,16.69
2019-04-27T10:40:22.111Z,16.65
2019-04-27T10:41:22.338Z,16.56
2019-04-27T10:42:22.564Z,16.58
2019-04-27T10:43:22.792Z,16.53
2019-04-27T10:44:23.020Z,16.50
2019-04-27T10:45:23.250Z,16.54
2019-04-27T10:46:23.476Z,16.51
2019-04-27T10:47:23.705Z,16.47
2019-04-27T10:48:23.933Z,16.47
2019-04-27T10:49:24.165Z,16.38
2019-04-27T10:50:26.353Z,16.31
2019-04-27T10:51:26.117Z,16.31
2019-04-27T10:52:24.842Z,16.28
2019-04-27T10:53:26.746Z,16.16
2019-04-27T10:54:25.299Z,16.05
2019-04-27T10:55:26.149Z,16.09
2019-04-27T10:56:27.324Z,16.02
2019-04-27T10:57:25.984Z,15.92
2019-04-27T10:58:27.287Z,15.80
2019-04-27T10:59:27.691Z,15.92
2019-04-27T11:00:26.663Z,15.90
2019-04-27T11:01:26.889Z,15.95
2019-04-27T11:02:27.116Z,15.94
2019-04-27T11:03:27.347Z,15.79
2019-04-27T11:04:27.567Z,15.86
2019-04-27T11:05:31.062Z,15.90
2019-04-27T11:06:28.022Z,15.80
2019-04-27T11:07:28.245Z,15.79
2019-04-27T11:08:28.475Z,15.73
2019-04-27T11:09:28.705Z,15.79
2019-04-27T11:10:28.930Z,15.82
2019-04-27T11:11:29.162Z,15.80
2019-04-27T11:12:29.386Z,15.65
2019-04-27T11:13:29.612Z,15.70
2019-04-27T11:14:29.840Z,15.88
2019-04-27T11:15:30.084Z,16.04
2019-04-27T11:16:30.297Z,16.21
2019-04-27T11:17:30.522Z,16.32
2019-04-27T11:18:30.753Z,16.42
2019-04-27T11:19:30.984Z,16.42
2019-04-27T11:20:31.220Z,16.58
2019-04-27T11:21:31.443Z,16.56
2019-04-27T11:22:31.672Z,16.50
2019-04-27T11:23:31.896Z,16.60
2019-04-27T11:24:32.123Z,16.58
2019-04-27T11:25:32.358Z,16.58
2019-04-27T11:26:32.586Z,16.58
2019-04-27T11:27:32.812Z,16.60
2019-04-27T11:28:33.039Z,16.54
2019-04-27T11:29:33.266Z,16.60
2019-04-27T11:30:33.495Z,16.65
2019-04-27T11:31:33.721Z,16.60
2019-04-27T11:32:33.947Z,16.66
2019-04-27T11:33:34.178Z,16.51
2019-04-27T11:34:34.401Z,16.61
2019-04-27T11:35:35.750Z,16.66
2019-04-27T11:36:35.614Z,16.53
2019-04-27T11:37:35.640Z,16.69
2019-04-27T11:38:36.576Z,16.61
2019-04-27T11:39:35.980Z,16.60
2019-04-27T11:40:36.694Z,16.46
2019-04-27T11:41:35.994Z,16.41
2019-04-27T11:42:36.223Z,16.61
2019-04-27T11:43:36.443Z,16.61
2019-04-27T11:44:36.670Z,16.60
2019-04-27T11:45:36.926Z,16.74
2019-04-27T11:46:37.127Z,16.69
2019-04-27T11:47:37.356Z,16.68
2019-04-27T11:48:37.583Z,16.61
2019-04-27T11:49:37.811Z,16.53
2019-04-27T11:50:38.039Z,16.49
2019-04-27T11:51:38.269Z,16.66
2019-04-27T11:52:38.495Z,16.65
2019-04-27T11:53:38.722Z,16.53
2019-04-27T11:54:38.955Z,16.64
2019-04-27T11:55:39.177Z,16.58
2019-04-27T11:56:39.449Z,16.61
2019-04-27T11:57:39.673Z,16.76
2019-04-27T11:58:39.861Z,16.78
2019-04-27T11:59:40.091Z,16.99
2019-04-27T12:00:40.320Z,17.14
2019-04-27T12:01:40.551Z,17.46
2019-04-27T12:02:40.776Z,17.41
2019-04-27T12:03:41.004Z,17.52
2019-04-27T12:04:41.232Z,17.38
2019-04-27T12:05:41.464Z,17.36
2019-04-27T12:06:41.688Z,17.56
2019-04-27T12:07:41.915Z,17.42
2019-04-27T12:08:42.143Z,17.54
2019-04-27T12:09:42.371Z,17.45
2019-04-27T12:10:42.598Z,17.59
2019-04-27T12:11:42.827Z,17.60
2019-04-27T12:12:43.052Z,17.24
2019-04-27T12:13:43.279Z,17.34
2019-04-27T12:14:43.507Z,17.41
2019-04-27T12:15:43.733Z,17.45
2019-04-27T12:16:43.959Z,17.46
2019-04-27T12:17:45.991Z,17.16
2019-04-27T12:18:48.880Z,17.16
2019-04-27T12:19:46.438Z,17.27
2019-04-27T12:20:45.760Z,17.36
2019-04-27T12:21:46.387Z,17.44
2019-04-27T12:22:45.329Z,17.26
2019-04-27T12:23:47.074Z,17.15
2019-04-27T12:24:45.873Z,17.33
2019-04-27T12:25:46.224Z,17.39
2019-04-27T12:26:46.238Z,17.48
2019-04-27T12:27:46.466Z,17.54
2019-04-27T12:28:46.703Z,17.65
2019-04-27T12:29:47.296Z,17.65
2019-04-27T12:30:47.170Z,17.72
2019-04-27T12:31:49.111Z,17.80
2019-04-27T12:32:47.630Z,17.78
2019-04-27T12:33:47.857Z,17.80
2019-04-27T12:34:48.084Z,17.92
2019-04-27T12:35:48.416Z,17.74
2019-04-27T12:36:48.540Z,17.80
2019-04-27T12:37:48.774Z,17.78
2019-04-27T12:38:48.997Z,17.82
2019-04-27T12:39:49.225Z,18.05
2019-04-27T12:40:49.453Z,18.00
2019-04-27T12:41:49.685Z,18.01
2019-04-27T12:42:49.912Z,18.08
2019-04-27T12:43:50.139Z,18.13
2019-04-27T12:44:50.368Z,18.15
2019-04-27T12:45:50.599Z,18.01
2019-04-27T12:46:50.825Z,18.07
2019-04-27T12:47:51.058Z,17.94
2019-04-27T12:48:51.280Z,17.90
2019-04-27T12:49:51.514Z,17.92
2019-04-27T12:50:51.738Z,18.00
2019-04-27T12:51:51.965Z,17.87
2019-04-27T12:52:52.193Z,17.78
2019-04-27T12:53:52.900Z,17.72
2019-04-27T12:54:52.657Z,17.48
2019-04-27T12:55:52.886Z,17.48
2019-04-27T12:56:53.113Z,17.51
2019-04-27T12:57:53.351Z,17.49
2019-04-27T12:58:53.567Z,17.41
2019-04-27T12:59:53.797Z,17.45
2019-04-27T13:00:54.024Z,17.44
2019-04-27T13:01:56.016Z,17.27
2019-04-27T13:02:55.565Z,17.41
2019-04-27T13:03:58.466Z,17.45